sensor_id;sensor_type;location;lat;lon;timestamp;pressure;altitude;pressure_sealevel;temperature;humidity
70758;BME280;59316;52.964;7.102;2023-05-07T00:01:01;101741.38;;;13.51;nan
70758;BME280;59316;52.964;7.102;2023-05-07T00:06:23;101750.00;;;13.53;nan
70758;BME280;59316;52.964;7.102;2023-05-07T00:11:45;101754.94;;;13.43;nan
70758;BME280;59316;52.964;7.102;2023-05-07T00:17:06;101748.25;;;13.38;nan
70758;BME280;59316;52.964;7.102;2023-05-07T00:22:28;101755.06;;;13.26;nan
70758;BME280;59316;52.964;7.102;2023-05-07T00:27:49;101763.53;;;13.15;nan
70758;BME280;59316;52.964;7.102;2023-05-07T00:33:10;101760.16;;;13.13;nan
70758;BME280;59316;52.964;7.102;2023-05-07T00:38:32;101763.34;;;13.02;nan
70758;BME280;59316;52.964;7.102;2023-05-07T00:43:54;101764.38;;;12.99;nan
70758;BME280;59316;52.964;7.102;2023-05-07T00:49:16;101767.19;;;12.96;nan
70758;BME280;59316;52.964;7.102;2023-05-07T00:54:38;101762.13;;;12.93;nan
70758;BME280;59316;52.964;7.102;2023-05-07T01:00:03;101783.44;;;13.03;nan
70758;BME280;59316;52.964;7.102;2023-05-07T01:05:25;101771.69;;;13.10;nan
70758;BME280;59316;52.964;7.102;2023-05-07T01:10:47;101781.16;;;12.97;nan
70758;BME280;59316;52.964;7.102;2023-05-07T01:16:09;101778.78;;;12.92;nan
70758;BME280;59316;52.964;7.102;2023-05-07T01:21:33;101783.84;;;12.95;nan
70758;BME280;59316;52.964;7.102;2023-05-07T01:26:56;101777.94;;;12.92;nan
70758;BME280;59316;52.964;7.102;2023-05-07T01:32:19;101781.84;;;12.85;nan
70758;BME280;59316;52.964;7.102;2023-05-07T01:37:49;101783.91;;;12.78;nan
70758;BME280;59316;52.964;7.102;2023-05-07T01:43:11;101775.44;;;12.73;nan
70758;BME280;59316;52.964;7.102;2023-05-07T01:48:34;101776.56;;;12.69;nan
70758;BME280;59316;52.964;7.102;2023-05-07T01:53:55;101767.06;;;12.66;nan
70758;BME280;59316;52.964;7.102;2023-05-07T01:59:17;101776.88;;;12.62;nan
70758;BME280;59316;52.964;7.102;2023-05-07T02:04:38;101762.00;;;12.63;nan
70758;BME280;59316;52.964;7.102;2023-05-07T02:10:00;101766.78;;;12.55;nan
70758;BME280;59316;52.964;7.102;2023-05-07T02:15:21;101773.03;;;12.52;nan
70758;BME280;59316;52.964;7.102;2023-05-07T02:20:43;101766.03;;;12.53;nan
70758;BME280;59316;52.964;7.102;2023-05-07T02:26:05;101769.34;;;12.56;nan
70758;BME280;59316;52.964;7.102;2023-05-07T02:31:26;101773.72;;;12.40;nan
70758;BME280;59316;52.964;7.102;2023-05-07T02:36:48;101769.41;;;12.39;nan
70758;BME280;59316;52.964;7.102;2023-05-07T02:42:13;101768.97;;;12.29;nan
70758;BME280;59316;52.964;7.102;2023-05-07T02:47:35;101768.53;;;12.21;nan
70758;BME280;59316;52.964;7.102;2023-05-07T02:52:57;101759.22;;;12.15;nan
70758;BME280;59316;52.964;7.102;2023-05-07T02:58:19;101755.66;;;12.16;nan
70758;BME280;59316;52.964;7.102;2023-05-07T03:03:41;101760.13;;;12.14;nan
70758;BME280;59316;52.964;7.102;2023-05-07T03:09:02;101759.69;;;12.06;nan
70758;BME280;59316;52.964;7.102;2023-05-07T03:14:24;101771.41;;;12.16;nan
70758;BME280;59316;52.964;7.102;2023-05-07T03:19:45;101775.88;;;12.14;nan
70758;BME280;59316;52.964;7.102;2023-05-07T03:25:08;101771.31;;;12.17;nan
70758;BME280;59316;52.964;7.102;2023-05-07T03:30:29;101756.50;;;12.16;nan
70758;BME280;59316;52.964;7.102;2023-05-07T03:35:51;101759.53;;;12.09;nan
70758;BME280;59316;52.964;7.102;2023-05-07T03:41:16;101753.28;;;12.11;nan
70758;BME280;59316;52.964;7.102;2023-05-07T03:46:39;101762.75;;;12.14;nan
70758;BME280;59316;52.964;7.102;2023-05-07T03:52:03;101762.84;;;12.12;nan
70758;BME280;59316;52.964;7.102;2023-05-07T03:57:25;101764.53;;;12.13;nan
70758;BME280;59316;52.964;7.102;2023-05-07T04:02:47;101771.56;;;12.13;nan
70758;BME280;59316;52.964;7.102;2023-05-07T04:08:15;101775.72;;;11.99;nan
70758;BME280;59316;52.964;7.102;2023-05-07T04:13:40;101776.66;;;11.98;nan
70758;BME280;59316;52.964;7.102;2023-05-07T04:19:02;101788.31;;;12.10;nan
70758;BME280;59316;52.964;7.102;2023-05-07T04:24:25;101798.09;;;12.07;nan
70758;BME280;59316;52.964;7.102;2023-05-07T04:29:47;101795.16;;;12.13;nan
70758;BME280;59316;52.964;7.102;2023-05-07T04:35:10;101798.84;;;12.09;nan
70758;BME280;59316;52.964;7.102;2023-05-07T04:40:32;101797.53;;;12.17;nan
70758;BME280;59316;52.964;7.102;2023-05-07T04:45:55;101794.91;;;12.17;nan
70758;BME280;59316;52.964;7.102;2023-05-07T04:51:19;101806.47;;;12.31;nan
70758;BME280;59316;52.964;7.102;2023-05-07T04:56:41;101793.38;;;12.31;nan
70758;BME280;59316;52.964;7.102;2023-05-07T05:02:03;101806.63;;;12.45;nan
70758;BME280;59316;52.964;7.102;2023-05-07T05:07:25;101813.88;;;12.58;nan
70758;BME280;59316;52.964;7.102;2023-05-07T05:12:47;101822.59;;;12.58;nan
70758;BME280;59316;52.964;7.102;2023-05-07T05:18:08;101828.75;;;12.57;nan
70758;BME280;59316;52.964;7.102;2023-05-07T05:23:32;101824.19;;;12.61;nan
70758;BME280;59316;52.964;7.102;2023-05-07T05:28:54;101833.75;;;12.79;nan
70758;BME280;59316;52.964;7.102;2023-05-07T05:34:17;101834.56;;;12.80;nan
70758;BME280;59316;52.964;7.102;2023-05-07T05:39:39;101830.91;;;12.67;nan
70758;BME280;59316;52.964;7.102;2023-05-07T05:45:03;101834.16;;;12.72;nan
70758;BME280;59316;52.964;7.102;2023-05-07T05:50:26;101823.47;;;12.75;nan
70758;BME280;59316;52.964;7.102;2023-05-07T05:55:48;101827.16;;;12.88;nan
70758;BME280;59316;52.964;7.102;2023-05-07T06:01:10;101822.13;;;12.84;nan
70758;BME280;59316;52.964;7.102;2023-05-07T06:06:32;101840.94;;;12.92;nan
70758;BME280;59316;52.964;7.102;2023-05-07T06:11:55;101851.63;;;12.89;nan
70758;BME280;59316;52.964;7.102;2023-05-07T06:17:19;101853.13;;;12.93;nan
70758;BME280;59316;52.964;7.102;2023-05-07T06:22:42;101851.38;;;13.09;nan
70758;BME280;59316;52.964;7.102;2023-05-07T06:28:05;101863.69;;;13.25;nan
70758;BME280;59316;52.964;7.102;2023-05-07T06:33:29;101856.91;;;13.21;nan
70758;BME280;59316;52.964;7.102;2023-05-07T06:38:50;101858.00;;;13.32;nan
70758;BME280;59316;52.964;7.102;2023-05-07T06:44:12;101860.13;;;13.42;nan
70758;BME280;59316;52.964;7.102;2023-05-07T06:49:38;101870.44;;;13.61;nan
70758;BME280;59316;52.964;7.102;2023-05-07T06:54:59;101867.81;;;13.61;nan
70758;BME280;59316;52.964;7.102;2023-05-07T07:00:21;101875.44;;;13.82;nan
70758;BME280;59316;52.964;7.102;2023-05-07T07:05:46;101880.53;;;13.69;nan
70758;BME280;59316;52.964;7.102;2023-05-07T07:11:09;101880.34;;;13.88;nan
70758;BME280;59316;52.964;7.102;2023-05-07T07:16:31;101882.31;;;13.68;nan
70758;BME280;59316;52.964;7.102;2023-05-07T07:21:52;101878.16;;;13.96;nan
70758;BME280;59316;52.964;7.102;2023-05-07T07:27:14;101877.75;;;14.18;nan
70758;BME280;59316;52.964;7.102;2023-05-07T07:32:36;101884.63;;;14.21;nan
70758;BME280;59316;52.964;7.102;2023-05-07T07:37:58;101896.75;;;14.23;nan
70758;BME280;59316;52.964;7.102;2023-05-07T07:43:19;101892.16;;;14.27;nan
70758;BME280;59316;52.964;7.102;2023-05-07T07:48:41;101892.97;;;14.58;nan
70758;BME280;59316;52.964;7.102;2023-05-07T07:54:03;101882.53;;;14.71;nan
70758;BME280;59316;52.964;7.102;2023-05-07T07:59:26;101890.63;;;15.11;nan
70758;BME280;59316;52.964;7.102;2023-05-07T08:04:48;101889.84;;;15.52;nan
70758;BME280;59316;52.964;7.102;2023-05-07T08:10:10;101889.88;;;15.92;nan
70758;BME280;59316;52.964;7.102;2023-05-07T08:15:32;101879.28;;;16.07;nan
70758;BME280;59316;52.964;7.102;2023-05-07T08:20:54;101877.53;;;16.59;nan
70758;BME280;59316;52.964;7.102;2023-05-07T08:26:19;101874.47;;;17.04;nan
70758;BME280;59316;52.964;7.102;2023-05-07T08:31:41;101879.34;;;16.84;nan
70758;BME280;59316;52.964;7.102;2023-05-07T08:37:02;101881.69;;;18.12;nan
70758;BME280;59316;52.964;7.102;2023-05-07T08:42:31;101881.06;;;18.55;nan
70758;BME280;59316;52.964;7.102;2023-05-07T08:48:02;101884.16;;;18.37;nan
70758;BME280;59316;52.964;7.102;2023-05-07T08:53:28;101884.25;;;18.25;nan
70758;BME280;59316;52.964;7.102;2023-05-07T08:58:50;101891.03;;;18.40;nan
70758;BME280;59316;52.964;7.102;2023-05-07T09:04:12;101895.75;;;18.12;nan
70758;BME280;59316;52.964;7.102;2023-05-07T09:09:34;101898.16;;;18.04;nan
70758;BME280;59316;52.964;7.102;2023-05-07T09:14:59;101899.88;;;18.16;nan
70758;BME280;59316;52.964;7.102;2023-05-07T09:20:21;101890.75;;;18.20;nan
70758;BME280;59316;52.964;7.102;2023-05-07T09:25:43;101887.34;;;18.65;nan
70758;BME280;59316;52.964;7.102;2023-05-07T09:31:12;101888.94;;;18.91;nan
70758;BME280;59316;52.964;7.102;2023-05-07T09:36:35;101875.03;;;18.53;nan
70758;BME280;59316;52.964;7.102;2023-05-07T09:41:57;101883.94;;;18.63;nan
70758;BME280;59316;52.964;7.102;2023-05-07T09:47:27;101883.59;;;19.25;nan
70758;BME280;59316;52.964;7.102;2023-05-07T09:52:55;101893.13;;;19.27;nan
70758;BME280;59316;52.964;7.102;2023-05-07T09:58:18;101897.19;;;19.31;nan
70758;BME280;59316;52.964;7.102;2023-05-07T10:03:41;101878.47;;;19.56;nan
70758;BME280;59316;52.964;7.102;2023-05-07T10:09:04;101882.78;;;19.68;nan
70758;BME280;59316;52.964;7.102;2023-05-07T10:14:26;101882.25;;;19.85;nan
70758;BME280;59316;52.964;7.102;2023-05-07T10:19:50;101888.53;;;20.90;nan
70758;BME280;59316;52.964;7.102;2023-05-07T10:25:23;101890.41;;;20.26;nan
70758;BME280;59316;52.964;7.102;2023-05-07T10:36:56;101890.84;;;20.10;nan
70758;BME280;59316;52.964;7.102;2023-05-07T10:42:19;101882.91;;;20.62;nan
70758;BME280;59316;52.964;7.102;2023-05-07T10:59:38;101893.41;;;22.43;nan
70758;BME280;59316;52.964;7.102;2023-05-07T11:05:23;101896.94;;;21.36;nan
70758;BME280;59316;52.964;7.102;2023-05-07T11:11:11;101886.59;;;22.11;nan
70758;BME280;59316;52.964;7.102;2023-05-07T11:16:37;101889.13;;;21.54;nan
70758;BME280;59316;52.964;7.102;2023-05-07T11:28:08;101877.25;;;22.55;nan
70758;BME280;59316;52.964;7.102;2023-05-07T11:33:33;101871.69;;;23.14;nan
70758;BME280;59316;52.964;7.102;2023-05-07T11:38:58;101869.09;;;22.66;nan
70758;BME280;59316;52.964;7.102;2023-05-07T11:44:19;101880.78;;;22.93;nan
70758;BME280;59316;52.964;7.102;2023-05-07T11:49:41;101875.13;;;23.24;nan
70758;BME280;59316;52.964;7.102;2023-05-07T11:55:03;101874.88;;;23.99;nan
70758;BME280;59316;52.964;7.102;2023-05-07T12:00:25;101887.97;;;23.20;nan
70758;BME280;59316;52.964;7.102;2023-05-07T12:05:47;101885.81;;;24.32;nan
70758;BME280;59316;52.964;7.102;2023-05-07T12:11:14;101891.81;;;24.87;nan
70758;BME280;59316;52.964;7.102;2023-05-07T12:16:36;101882.09;;;25.20;nan
70758;BME280;59316;52.964;7.102;2023-05-07T12:21:58;101873.22;;;24.42;nan
70758;BME280;59316;52.964;7.102;2023-05-07T12:27:20;101868.81;;;25.02;nan
70758;BME280;59316;52.964;7.102;2023-05-07T12:32:41;101875.22;;;23.78;nan
70758;BME280;59316;52.964;7.102;2023-05-07T12:38:16;101879.22;;;23.46;nan
70758;BME280;59316;52.964;7.102;2023-05-07T12:43:38;101869.91;;;23.50;nan
70758;BME280;59316;52.964;7.102;2023-05-07T12:48:59;101877.38;;;23.47;nan
70758;BME280;59316;52.964;7.102;2023-05-07T12:54:34;101873.97;;;24.08;nan
70758;BME280;59316;52.964;7.102;2023-05-07T12:59:57;101889.88;;;24.18;nan
70758;BME280;59316;52.964;7.102;2023-05-07T13:05:19;101893.44;;;23.65;nan
70758;BME280;59316;52.964;7.102;2023-05-07T13:10:40;101896.84;;;23.93;nan
70758;BME280;59316;52.964;7.102;2023-05-07T13:16:03;101898.16;;;23.89;nan
70758;BME280;59316;52.964;7.102;2023-05-07T13:21:25;101891.13;;;23.52;nan
70758;BME280;59316;52.964;7.102;2023-05-07T13:26:46;101882.59;;;24.02;nan
70758;BME280;59316;52.964;7.102;2023-05-07T13:32:08;101883.22;;;24.22;nan
70758;BME280;59316;52.964;7.102;2023-05-07T13:37:30;101869.75;;;24.50;nan
70758;BME280;59316;52.964;7.102;2023-05-07T13:42:51;101884.09;;;24.75;nan
70758;BME280;59316;52.964;7.102;2023-05-07T13:48:13;101879.41;;;24.43;nan
70758;BME280;59316;52.964;7.102;2023-05-07T13:53:35;101895.31;;;23.54;nan
70758;BME280;59316;52.964;7.102;2023-05-07T13:58:56;101891.03;;;23.25;nan
70758;BME280;59316;52.964;7.102;2023-05-07T14:04:20;101886.50;;;23.26;nan
70758;BME280;59316;52.964;7.102;2023-05-07T14:09:41;101889.81;;;22.15;nan
70758;BME280;59316;52.964;7.102;2023-05-07T14:15:03;101884.78;;;22.02;nan
70758;BME280;59316;52.964;7.102;2023-05-07T14:20:25;101902.47;;;21.84;nan
70758;BME280;59316;52.964;7.102;2023-05-07T14:25:46;101905.38;;;21.61;nan
70758;BME280;59316;52.964;7.102;2023-05-07T14:31:08;101892.53;;;22.62;nan
70758;BME280;59316;52.964;7.102;2023-05-07T14:36:29;101884.13;;;22.00;nan
70758;BME280;59316;52.964;7.102;2023-05-07T14:41:51;101900.00;;;21.31;nan
70758;BME280;59316;52.964;7.102;2023-05-07T14:47:12;101900.09;;;21.20;nan
70758;BME280;59316;52.964;7.102;2023-05-07T14:52:35;101909.34;;;21.26;nan
70758;BME280;59316;52.964;7.102;2023-05-07T14:57:56;101917.88;;;21.20;nan
70758;BME280;59316;52.964;7.102;2023-05-07T15:03:18;101917.50;;;20.93;nan
70758;BME280;59316;52.964;7.102;2023-05-07T15:08:40;101918.41;;;20.61;nan
70758;BME280;59316;52.964;7.102;2023-05-07T15:14:01;101921.09;;;20.40;nan
70758;BME280;59316;52.964;7.102;2023-05-07T15:19:23;101925.88;;;20.25;nan
70758;BME280;59316;52.964;7.102;2023-05-07T15:24:44;101933.13;;;19.91;nan
70758;BME280;59316;52.964;7.102;2023-05-07T15:30:06;101936.09;;;19.76;nan
70758;BME280;59316;52.964;7.102;2023-05-07T15:35:28;101939.84;;;19.74;nan
70758;BME280;59316;52.964;7.102;2023-05-07T15:40:50;101942.75;;;19.36;nan
70758;BME280;59316;52.964;7.102;2023-05-07T15:46:11;101940.00;;;18.93;nan
70758;BME280;59316;52.964;7.102;2023-05-07T15:51:34;101936.59;;;18.68;nan
70758;BME280;59316;52.964;7.102;2023-05-07T15:56:56;101931.19;;;18.34;nan
70758;BME280;59316;52.964;7.102;2023-05-07T16:02:17;101935.66;;;18.33;nan
70758;BME280;59316;52.964;7.102;2023-05-07T16:07:39;101935.00;;;18.54;nan
70758;BME280;59316;52.964;7.102;2023-05-07T16:13:00;101934.56;;;18.83;nan
70758;BME280;59316;52.964;7.102;2023-05-07T16:18:22;101926.41;;;18.97;nan
70758;BME280;59316;52.964;7.102;2023-05-07T16:23:43;101933.28;;;19.11;nan
70758;BME280;59316;52.964;7.102;2023-05-07T16:29:05;101935.06;;;19.33;nan
70758;BME280;59316;52.964;7.102;2023-05-07T16:34:26;101940.84;;;19.27;nan
70758;BME280;59316;52.964;7.102;2023-05-07T16:39:50;101948.81;;;19.04;nan
70758;BME280;59316;52.964;7.102;2023-05-07T16:45:11;101959.97;;;18.74;nan
70758;BME280;59316;52.964;7.102;2023-05-07T16:50:33;101945.75;;;18.64;nan
70758;BME280;59316;52.964;7.102;2023-05-07T16:55:54;101953.47;;;18.31;nan
70758;BME280;59316;52.964;7.102;2023-05-07T17:01:16;101960.53;;;18.19;nan
70758;BME280;59316;52.964;7.102;2023-05-07T17:06:37;101950.97;;;18.05;nan
70758;BME280;59316;52.964;7.102;2023-05-07T17:11:59;101952.03;;;18.03;nan
70758;BME280;59316;52.964;7.102;2023-05-07T17:17:21;101955.97;;;17.97;nan
70758;BME280;59316;52.964;7.102;2023-05-07T17:22:42;101960.28;;;17.98;nan
70758;BME280;59316;52.964;7.102;2023-05-07T17:28:04;101961.16;;;17.99;nan
70758;BME280;59316;52.964;7.102;2023-05-07T17:33:25;101954.00;;;18.12;nan
70758;BME280;59316;52.964;7.102;2023-05-07T17:38:48;101953.31;;;18.21;nan
70758;BME280;59316;52.964;7.102;2023-05-07T17:44:09;101956.72;;;18.35;nan
70758;BME280;59316;52.964;7.102;2023-05-07T17:49:31;101969.22;;;18.33;nan
70758;BME280;59316;52.964;7.102;2023-05-07T17:54:52;101977.22;;;18.44;nan
70758;BME280;59316;52.964;7.102;2023-05-07T18:00:14;101984.44;;;18.42;nan
70758;BME280;59316;52.964;7.102;2023-05-07T18:05:36;101981.88;;;18.29;nan
70758;BME280;59316;52.964;7.102;2023-05-07T18:10:58;101985.09;;;17.97;nan
70758;BME280;59316;52.964;7.102;2023-05-07T18:16:19;101995.63;;;17.73;nan
70758;BME280;59316;52.964;7.102;2023-05-07T18:21:41;101997.03;;;17.53;nan
70758;BME280;59316;52.964;7.102;2023-05-07T18:27:02;102004.50;;;17.22;nan
70758;BME280;59316;52.964;7.102;2023-05-07T18:32:24;102012.72;;;17.04;nan
70758;BME280;59316;52.964;7.102;2023-05-07T18:37:46;102025.69;;;16.82;nan
70758;BME280;59316;52.964;7.102;2023-05-07T18:43:07;102028.81;;;16.61;nan
70758;BME280;59316;52.964;7.102;2023-05-07T18:48:29;102037.03;;;16.29;nan
70758;BME280;59316;52.964;7.102;2023-05-07T18:53:51;102048.81;;;15.96;nan
70758;BME280;59316;52.964;7.102;2023-05-07T18:59:12;102044.50;;;15.81;nan
70758;BME280;59316;52.964;7.102;2023-05-07T19:04:34;102055.84;;;15.68;nan
70758;BME280;59316;52.964;7.102;2023-05-07T19:09:55;102054.03;;;15.40;nan
70758;BME280;59316;52.964;7.102;2023-05-07T19:15:24;102064.53;;;15.11;nan
70758;BME280;59316;52.964;7.102;2023-05-07T19:20:47;102066.81;;;14.87;nan
70758;BME280;59316;52.964;7.102;2023-05-07T19:26:12;102079.41;;;14.82;nan
70758;BME280;59316;52.964;7.102;2023-05-07T19:31:34;102084.75;;;14.80;nan
70758;BME280;59316;52.964;7.102;2023-05-07T19:36:55;102086.59;;;14.64;nan
70758;BME280;59316;52.964;7.102;2023-05-07T19:42:17;102090.53;;;14.71;nan
70758;BME280;59316;52.964;7.102;2023-05-07T19:47:39;102102.00;;;14.70;nan
70758;BME280;59316;52.964;7.102;2023-05-07T19:53:00;102103.22;;;14.64;nan
70758;BME280;59316;52.964;7.102;2023-05-07T19:58:22;102106.72;;;14.49;nan
70758;BME280;59316;52.964;7.102;2023-05-07T20:03:44;102116.13;;;14.21;nan
70758;BME280;59316;52.964;7.102;2023-05-07T20:09:05;102118.47;;;13.93;nan
70758;BME280;59316;52.964;7.102;2023-05-07T20:14:27;102112.22;;;14.12;nan
70758;BME280;59316;52.964;7.102;2023-05-07T20:19:48;102115.91;;;14.25;nan
70758;BME280;59316;52.964;7.102;2023-05-07T20:25:10;102105.25;;;14.11;nan
70758;BME280;59316;52.964;7.102;2023-05-07T20:30:31;102109.09;;;14.05;nan
70758;BME280;59316;52.964;7.102;2023-05-07T20:35:53;102112.28;;;13.94;nan
70758;BME280;59316;52.964;7.102;2023-05-07T20:41:17;102111.94;;;14.01;nan
70758;BME280;59316;52.964;7.102;2023-05-07T20:46:39;102111.41;;;13.94;nan
70758;BME280;59316;52.964;7.102;2023-05-07T20:52:00;102124.13;;;13.86;nan
70758;BME280;59316;52.964;7.102;2023-05-07T20:57:22;102123.53;;;13.80;nan
70758;BME280;59316;52.964;7.102;2023-05-07T21:02:44;102125.88;;;13.69;nan
70758;BME280;59316;52.964;7.102;2023-05-07T21:08:05;102133.06;;;13.66;nan
70758;BME280;59316;52.964;7.102;2023-05-07T21:13:27;102134.56;;;13.54;nan
70758;BME280;59316;52.964;7.102;2023-05-07T21:18:48;102139.19;;;13.48;nan
70758;BME280;59316;52.964;7.102;2023-05-07T21:24:10;102148.69;;;13.51;nan
70758;BME280;59316;52.964;7.102;2023-05-07T21:29:32;102149.53;;;13.52;nan
70758;BME280;59316;52.964;7.102;2023-05-07T21:34:53;102148.63;;;13.53;nan
70758;BME280;59316;52.964;7.102;2023-05-07T21:40:15;102155.88;;;13.47;nan
70758;BME280;59316;52.964;7.102;2023-05-07T21:45:38;102155.28;;;13.42;nan
70758;BME280;59316;52.964;7.102;2023-05-07T21:51:04;102147.31;;;13.44;nan
70758;BME280;59316;52.964;7.102;2023-05-07T21:56:26;102158.81;;;13.41;nan
70758;BME280;59316;52.964;7.102;2023-05-07T22:01:48;102152.66;;;13.42;nan
70758;BME280;59316;52.964;7.102;2023-05-07T22:07:09;102157.81;;;13.44;nan
70758;BME280;59316;52.964;7.102;2023-05-07T22:12:31;102159.03;;;13.54;nan
70758;BME280;59316;52.964;7.102;2023-05-07T22:17:52;102161.66;;;13.54;nan
70758;BME280;59316;52.964;7.102;2023-05-07T22:23:14;102163.47;;;13.54;nan
70758;BME280;59316;52.964;7.102;2023-05-07T22:28:36;102176.28;;;13.60;nan
70758;BME280;59316;52.964;7.102;2023-05-07T22:33:57;102183.47;;;13.56;nan
70758;BME280;59316;52.964;7.102;2023-05-07T22:39:19;102172.75;;;13.43;nan
70758;BME280;59316;52.964;7.102;2023-05-07T22:44:40;102170.72;;;13.48;nan
70758;BME280;59316;52.964;7.102;2023-05-07T22:50:02;102182.03;;;13.33;nan
70758;BME280;59316;52.964;7.102;2023-05-07T22:55:24;102179.00;;;13.23;nan
70758;BME280;59316;52.964;7.102;2023-05-07T23:00:45;102174.19;;;13.14;nan
70758;BME280;59316;52.964;7.102;2023-05-07T23:06:07;102171.56;;;13.14;nan
70758;BME280;59316;52.964;7.102;2023-05-07T23:11:29;102179.75;;;13.08;nan
70758;BME280;59316;52.964;7.102;2023-05-07T23:16:50;102184.22;;;13.06;nan
70758;BME280;59316;52.964;7.102;2023-05-07T23:22:12;102176.56;;;13.01;nan
70758;BME280;59316;52.964;7.102;2023-05-07T23:27:33;102174.78;;;13.02;nan
70758;BME280;59316;52.964;7.102;2023-05-07T23:32:55;102167.75;;;13.02;nan
70758;BME280;59316;52.964;7.102;2023-05-07T23:38:16;102170.69;;;12.96;nan
70758;BME280;59316;52.964;7.102;2023-05-07T23:43:38;102170.28;;;12.86;nan
70758;BME280;59316;52.964;7.102;2023-05-07T23:48:59;102161.91;;;12.78;nan
70758;BME280;59316;52.964;7.102;2023-05-07T23:54:21;102162.06;;;12.75;nan
70758;BME280;59316;52.964;7.102;2023-05-07T23:59:42;102169.84;;;12.59;nan
